Time;durP1;ratioP1;P1;durP2;ratioP2;P2;SDS_P1;SDS_P2;PMS_P1;PMS_P2;Temp;Humidity;BMP_temperature;BMP_pressure;BME280_temperature;BME280_humidity;BME280_pressure;Samples;Min_cycle;Max_cycle;Signal;HPM_P1;HPM_P2
2021/06/10 00:01:38;;;;;;;;;12.25;10.25;;;;;-144.77;100.00;61770.03;4956540;28;47372;-87
2021/06/10 00:04:03;;;;;;;;;14.00;12.00;;;;;-144.77;100.00;61770.03;4942515;28;46836;-87
2021/06/10 00:06:29;;;;;;;;;16.25;11.25;;;;;-144.77;100.00;61770.03;4955814;28;46912;-87
2021/06/10 00:08:54;;;;;;;;;14.25;12.00;;;;;-144.77;100.00;61770.03;4973213;28;48393;-87
2021/06/10 00:11:20;;;;;;;;;11.50;11.50;;;;;-144.77;100.00;61770.03;4958208;28;46930;-87
2021/06/10 00:13:46;;;;;;;;;13.50;12.00;;;;;-144.77;100.00;61770.03;4958454;28;47257;-87
2021/06/10 00:16:11;;;;;;;;;11.50;11.25;;;;;-144.77;100.00;61770.03;4958051;28;47136;-87
2021/06/10 00:18:37;;;;;;;;;12.75;12.75;;;;;-144.77;100.00;61770.03;4958152;28;47840;-87
2021/06/10 00:21:02;;;;;;;;;16.50;14.75;;;;;-144.77;100.00;61770.03;4944501;28;46910;-87
2021/06/10 00:23:28;;;;;;;;;15.00;13.75;;;;;-144.77;100.00;61770.03;4957762;28;47075;-87
2021/06/10 00:25:53;;;;;;;;;13.50;12.75;;;;;-144.77;100.00;61770.03;4957997;28;46949;-87
2021/06/10 00:28:19;;;;;;;;;14.25;12.25;;;;;-144.77;100.00;61770.03;4958255;28;46984;-87
2021/06/10 00:30:44;;;;;;;;;14.25;11.25;;;;;-144.77;100.00;61770.03;4954055;28;46890;-87
2021/06/10 00:33:10;;;;;;;;;15.50;14.50;;;;;-144.77;100.00;61770.03;4958158;28;46935;-88
2021/06/10 00:35:36;;;;;;;;;11.00;10.75;;;;;-144.77;100.00;61770.03;4957426;28;46902;-88
2021/06/10 00:38:02;;;;;;;;;14.50;14.00;;;;;-144.77;100.00;61770.03;4958003;28;46843;-87
2021/06/10 00:40:30;;;;;;;;;11.75;11.25;;;;;-144.77;100.00;61770.03;4949388;28;46929;-86
2021/06/10 00:42:56;;;;;;;;;13.25;12.75;;;;;-144.77;100.00;61770.03;4957852;28;46855;-87
2021/06/10 00:45:22;;;;;;;;;13.25;13.25;;;;;-144.77;100.00;61770.03;4973310;28;47035;-87
2021/06/10 00:47:49;;;;;;;;;14.00;13.75;;;;;-144.77;100.00;61770.03;4957587;28;47080;-87
2021/06/10 00:50:22;;;;;;;;;13.75;13.75;;;;;-144.77;100.00;61770.03;4957726;28;46856;-87
2021/06/10 00:52:47;;;;;;;;;15.25;13.00;;;;;-144.77;100.00;61770.03;4957897;28;47066;-86
2021/06/10 00:55:14;;;;;;;;;12.50;12.50;;;;;-144.77;100.00;61770.03;4958111;28;46959;-87
2021/06/10 00:57:40;;;;;;;;;12.50;11.50;;;;;-144.77;100.00;61770.03;4957671;28;47737;-86
2021/06/10 01:00:08;;;;;;;;;14.00;14.00;;;;;-144.77;100.00;61770.03;4957830;28;46859;-87
2021/06/10 01:02:34;;;;;;;;;11.50;11.50;;;;;-144.77;100.00;61770.03;4947416;28;46948;-86
2021/06/10 01:05:00;;;;;;;;;13.50;13.00;;;;;-144.77;100.00;61770.03;4957503;28;47187;-86
2021/06/10 01:07:35;;;;;;;;;12.75;10.75;;;;;-144.77;100.00;61770.03;4957616;28;47719;-87
2021/06/10 01:10:09;;;;;;;;;12.50;12.50;;;;;-144.77;100.00;61770.03;4957069;28;48644;-86
2021/06/10 01:12:53;;;;;;;;;15.50;13.75;;;;;-144.77;100.00;61770.03;4956380;28;47100;-87
2021/06/10 01:15:24;;;;;;;;;13.75;11.50;;;;;-144.77;100.00;61770.03;4957696;28;47067;-86
2021/06/10 01:17:49;;;;;;;;;14.50;13.00;;;;;-144.77;100.00;61770.03;4957342;28;48142;-86
2021/06/10 01:20:22;;;;;;;;;12.75;11.75;;;;;-144.77;100.00;61770.03;4957289;28;47018;-86
2021/06/10 01:22:57;;;;;;;;;12.75;10.75;;;;;-144.77;100.00;61770.03;4955234;28;47016;-87
2021/06/10 01:25:34;;;;;;;;;12.50;11.25;;;;;-144.77;100.00;61770.03;4957706;28;47005;-87
2021/06/10 01:28:09;;;;;;;;;15.50;14.25;;;;;-144.77;100.00;61770.03;4956156;28;46898;-87
2021/06/10 01:30:59;;;;;;;;;13.25;11.75;;;;;-144.77;100.00;61770.03;4951893;28;47192;-86
2021/06/10 01:33:32;;;;;;;;;12.25;11.50;;;;;-144.77;100.00;61770.03;4957300;28;47061;-86
2021/06/10 01:36:02;;;;;;;;;14.00;11.75;;;;;-144.77;100.00;61770.03;4957144;28;47051;-87
2021/06/10 01:38:30;;;;;;;;;13.00;11.25;;;;;-144.77;100.00;61770.03;4957258;28;48227;-87
2021/06/10 01:40:57;;;;;;;;;13.25;12.00;;;;;-144.77;100.00;61770.03;4956911;28;46859;-87
2021/06/10 01:43:25;;;;;;;;;13.00;13.00;;;;;-144.77;100.00;61770.03;4944949;28;47033;-87
2021/06/10 01:45:51;;;;;;;;;11.50;11.50;;;;;-144.77;100.00;61770.03;4955700;28;47051;-88
2021/06/10 01:48:22;;;;;;;;;15.25;12.75;;;;;-144.77;100.00;61770.03;4954138;28;47125;-87
2021/06/10 01:50:51;;;;;;;;;8.50;8.00;;;;;-144.77;100.00;61770.03;4956475;28;47229;-87
2021/06/10 01:53:18;;;;;;;;;11.50;10.00;;;;;-144.77;100.00;61770.03;4956972;28;47063;-88
2021/06/10 01:55:46;;;;;;;;;11.75;11.00;;;;;-144.77;100.00;61770.03;4972038;28;46849;-88
2021/06/10 01:58:13;;;;;;;;;12.00;10.50;;;;;-144.77;100.00;61770.03;4956738;28;47098;-87
2021/06/10 02:00:40;;;;;;;;;12.75;12.00;;;;;-144.77;100.00;61770.03;4956947;28;47005;-88
2021/06/10 02:03:08;;;;;;;;;13.50;11.25;;;;;-144.77;100.00;61770.03;4951248;28;47146;-87
2021/06/10 02:05:36;;;;;;;;;10.25;10.25;;;;;-144.77;100.00;61770.03;4954907;28;46887;-87
2021/06/10 02:08:03;;;;;;;;;10.50;10.50;;;;;-144.77;100.00;61770.03;4971839;28;48754;-88
2021/06/10 02:10:29;;;;;;;;;12.00;12.00;;;;;-144.77;100.00;61770.03;4956984;28;47039;-87
2021/06/10 02:12:55;;;;;;;;;9.75;9.75;;;;;-144.77;100.00;61770.03;4956960;28;47013;-87
2021/06/10 02:15:21;;;;;;;;;11.00;11.00;;;;;-144.77;100.00;61770.03;4956699;28;47103;-87
2021/06/10 02:17:48;;;;;;;;;14.00;13.00;;;;;-144.77;100.00;61770.03;4956760;28;47031;-88
2021/06/10 02:20:16;;;;;;;;;15.25;12.25;;;;;-144.77;100.00;61770.03;4956208;28;46933;-90
2021/06/10 02:22:42;;;;;;;;;14.25;13.25;;;;;-144.77;100.00;61770.03;4956805;28;46969;-88
2021/06/10 02:25:08;;;;;;;;;12.50;11.25;;;;;-144.77;100.00;61770.03;4946548;28;46981;-88
2021/06/10 02:27:34;;;;;;;;;12.75;11.25;;;;;-144.77;100.00;61770.03;4956869;28;46957;-88
2021/06/10 02:29:59;;;;;;;;;15.25;12.50;;;;;-144.77;100.00;61770.03;4955414;28;47225;-88
2021/06/10 02:32:25;;;;;;;;;13.00;11.75;;;;;-144.77;100.00;61770.03;4961382;28;47009;-88
2021/06/10 02:34:51;;;;;;;;;13.75;13.25;;;;;-144.77;100.00;61770.03;4956157;28;47218;-86
2021/06/10 02:37:19;;;;;;;;;10.75;10.75;;;;;-144.77;100.00;61770.03;4956105;28;47931;-87
2021/06/10 02:39:47;;;;;;;;;11.00;11.00;;;;;-144.77;100.00;61770.03;4957580;28;47125;-88
2021/06/10 02:42:16;;;;;;;;;12.25;11.75;;;;;-144.77;100.00;61770.03;4959269;28;47060;-87
2021/06/10 02:44:45;;;;;;;;;14.00;13.75;;;;;-144.77;100.00;61770.03;4951333;28;47016;-89
2021/06/10 02:47:12;;;;;;;;;15.75;13.25;;;;;-144.77;100.00;61770.03;4954809;28;48117;-88
2021/06/10 02:49:45;;;;;;;;;11.75;11.75;;;;;-144.77;100.00;61770.03;4959235;28;47246;-88
2021/06/10 02:52:13;;;;;;;;;11.00;9.25;;;;;-144.77;100.00;61770.03;4959290;28;46957;-87
2021/06/10 02:54:39;;;;;;;;;13.50;13.50;;;;;-144.77;100.00;61770.03;4959731;28;47123;-88
2021/06/10 02:57:07;;;;;;;;;7.50;7.25;;;;;-144.77;100.00;61770.03;4959188;28;47923;-87
2021/06/10 02:59:36;;;;;;;;;13.00;12.75;;;;;-144.77;100.00;61770.03;4958988;28;46850;-88
2021/06/10 03:02:04;;;;;;;;;16.50;12.75;;;;;-144.77;100.00;61770.03;4958813;28;47043;-87
2021/06/10 03:04:30;;;;;;;;;15.00;15.00;;;;;-144.77;100.00;61770.03;4956737;28;47113;-88
2021/06/10 03:06:57;;;;;;;;;11.25;11.25;;;;;-144.77;100.00;61770.03;4947506;28;47026;-90
2021/06/10 03:09:24;;;;;;;;;11.25;11.25;;;;;-144.77;100.00;61770.03;4956734;28;47171;-88
2021/06/10 03:11:50;;;;;;;;;14.25;14.25;;;;;-144.77;100.00;61770.03;4958888;28;47113;-88
2021/06/10 03:14:17;;;;;;;;;11.00;11.00;;;;;-144.77;100.00;61770.03;4958055;28;46897;-89
2021/06/10 03:16:46;;;;;;;;;13.50;12.25;;;;;-144.77;100.00;61770.03;4955564;28;47376;-87
2021/06/10 03:19:12;;;;;;;;;15.00;11.75;;;;;-144.77;100.00;61770.03;4959047;28;47278;-90
2021/06/10 03:21:39;;;;;;;;;11.50;11.00;;;;;-144.77;100.00;61770.03;4957474;28;47157;-87
2021/06/10 03:24:05;;;;;;;;;15.00;13.25;;;;;-144.77;100.00;61770.03;4959060;28;46961;-88
2021/06/10 03:26:35;;;;;;;;;14.75;12.00;;;;;-144.77;100.00;61770.03;4948209;28;46869;-87
2021/06/10 03:29:02;;;;;;;;;12.75;10.75;;;;;-144.77;100.00;61770.03;4957232;28;46861;-87
2021/06/10 03:31:29;;;;;;;;;15.25;13.25;;;;;-144.77;100.00;61770.03;4961345;28;46982;-87
2021/06/10 03:33:57;;;;;;;;;12.75;12.25;;;;;-144.77;100.00;61770.03;4958675;28;46908;-87
2021/06/10 03:36:23;;;;;;;;;13.50;12.50;;;;;-144.77;100.00;61770.03;4957166;28;49342;-87
2021/06/10 03:38:50;;;;;;;;;13.00;11.50;;;;;-144.77;100.00;61770.03;4958727;28;46966;-87
2021/06/10 03:41:17;;;;;;;;;11.25;11.25;;;;;-144.77;100.00;61770.03;4958690;28;47219;-87
2021/06/10 03:43:43;;;;;;;;;11.75;11.25;;;;;-144.77;100.00;61770.03;4958882;28;47122;-88
2021/06/10 03:46:10;;;;;;;;;12.75;11.75;;;;;-144.77;100.00;61770.03;4956881;28;47067;-87
2021/06/10 03:48:41;;;;;;;;;11.75;11.75;;;;;-144.77;100.00;61770.03;4948212;28;46932;-86
2021/06/10 03:51:17;;;;;;;;;12.00;11.00;;;;;-144.77;100.00;61770.03;4958292;28;46936;-87
2021/06/10 03:53:44;;;;;;;;;10.75;9.75;;;;;-144.77;100.00;61770.03;4958555;28;46991;-87
2021/06/10 03:56:10;;;;;;;;;14.50;11.00;;;;;-144.77;100.00;61770.03;4958261;28;47123;-88
2021/06/10 03:58:36;;;;;;;;;15.00;13.75;;;;;-144.77;100.00;61770.03;4958457;28;46830;-87
2021/06/10 04:01:02;;;;;;;;;12.75;10.00;;;;;-144.77;100.00;61770.03;4958376;28;48337;-87
2021/06/10 04:03:28;;;;;;;;;11.00;11.00;;;;;-144.77;100.00;61770.03;4953869;28;47253;-87
2021/06/10 04:05:53;;;;;;;;;12.50;12.50;;;;;-144.77;100.00;61770.03;4956665;28;47118;-87
2021/06/10 04:08:19;;;;;;;;;12.50;11.25;;;;;-144.77;100.00;61770.03;4943527;28;47064;-87
2021/06/10 04:10:44;;;;;;;;;12.50;11.50;;;;;-144.77;100.00;61770.03;4957769;28;47059;-88
2021/06/10 04:13:10;;;;;;;;;10.75;10.25;;;;;-144.77;100.00;61770.03;4958513;28;47079;-87
2021/06/10 04:15:35;;;;;;;;;9.75;9.00;;;;;-144.77;100.00;61770.03;4973052;28;48494;-87
2021/06/10 04:18:01;;;;;;;;;11.75;10.75;;;;;-144.77;100.00;61770.03;4958082;28;47031;-86
2021/06/10 04:20:28;;;;;;;;;11.00;10.75;;;;;-144.77;100.00;61770.03;4957812;28;46934;-87
2021/06/10 04:22:54;;;;;;;;;11.00;10.50;;;;;-144.77;100.00;61770.03;4958293;28;47394;-87
2021/06/10 04:25:19;;;;;;;;;12.75;11.75;;;;;-144.77;100.00;61770.03;4958161;28;48020;-87
2021/06/10 04:27:45;;;;;;;;;9.25;9.25;;;;;-144.77;100.00;61770.03;4954911;28;46882;-87
2021/06/10 04:30:12;;;;;;;;;12.25;10.50;;;;;-144.77;100.00;61770.03;4946645;28;46969;-88
2021/06/10 04:32:39;;;;;;;;;13.50;11.50;;;;;-144.77;100.00;61770.03;4955923;28;47065;-86
2021/06/10 04:35:05;;;;;;;;;11.50;11.50;;;;;-144.77;100.00;61770.03;4957693;28;47826;-87
2021/06/10 04:37:31;;;;;;;;;12.50;9.25;;;;;-144.77;100.00;61770.03;4957590;28;47273;-88
2021/06/10 04:39:57;;;;;;;;;11.50;9.50;;;;;-144.77;100.00;61770.03;4958119;28;47091;-87
2021/06/10 04:42:23;;;;;;;;;9.00;8.50;;;;;-144.77;100.00;61770.03;4958525;28;46882;-88
2021/06/10 04:44:48;;;;;;;;;9.50;9.00;;;;;-144.77;100.00;61770.03;4957841;28;47824;-87
2021/06/10 04:47:14;;;;;;;;;8.25;8.25;;;;;-144.77;100.00;61770.03;4957393;28;47365;-87
2021/06/10 04:49:39;;;;;;;;;6.75;6.75;;;;;-144.77;100.00;61770.03;4955914;28;47130;-88
2021/06/10 04:52:05;;;;;;;;;7.00;6.25;;;;;-144.77;100.00;61770.03;4957660;28;47071;-88
2021/06/10 04:54:33;;;;;;;;;6.25;5.75;;;;;-144.77;100.00;61770.03;4957900;28;47954;-87
2021/06/10 04:56:59;;;;;;;;;7.75;6.00;;;;;-144.77;100.00;61770.03;4957625;28;46995;-87
2021/06/10 04:59:25;;;;;;;;;6.25;6.25;;;;;-144.77;100.00;61770.03;4958135;28;47037;-89
2021/06/10 05:01:50;;;;;;;;;3.75;3.75;;;;;-144.77;100.00;61770.03;4957819;28;47031;-88
2021/06/10 05:04:16;;;;;;;;;6.50;5.00;;;;;-144.77;100.00;61770.03;4954659;28;48518;-91
2021/06/10 05:06:41;;;;;;;;;5.00;4.75;;;;;-144.77;100.00;61770.03;4957583;28;46989;-88
2021/06/10 05:09:07;;;;;;;;;6.50;5.00;;;;;-144.77;100.00;61770.03;4957223;28;47090;-87
2021/06/10 05:11:32;;;;;;;;;5.25;5.00;;;;;-144.77;100.00;61770.03;4957559;28;47217;-87
2021/06/10 05:13:58;;;;;;;;;4.50;4.50;;;;;-144.77;100.00;61770.03;4957510;28;47220;-87
2021/06/10 05:16:26;;;;;;;;;6.00;4.25;;;;;-144.77;100.00;61770.03;4957946;28;46833;-87
2021/06/10 05:18:52;;;;;;;;;3.50;3.50;;;;;-144.77;100.00;61770.03;4957148;28;47131;-86
2021/06/10 05:21:17;;;;;;;;;4.00;3.00;;;;;-144.77;100.00;61770.03;4957884;28;46950;-86
2021/06/10 05:23:43;;;;;;;;;4.50;4.50;;;;;-144.77;100.00;61770.03;4956805;28;47134;-86
2021/06/10 05:26:09;;;;;;;;;5.25;3.50;;;;;-144.77;100.00;61770.03;4957412;28;47011;-86
2021/06/10 05:28:35;;;;;;;;;4.50;3.50;;;;;-144.77;100.00;61770.03;4957059;28;46949;-86
2021/06/10 05:31:01;;;;;;;;;3.75;3.75;;;;;-144.77;100.00;61770.03;4946000;28;46920;-85
2021/06/10 05:33:27;;;;;;;;;4.75;4.00;;;;;-144.77;100.00;61770.03;4955621;28;46973;-86
2021/06/10 05:35:53;;;;;;;;;3.75;3.75;;;;;-144.77;100.00;61770.03;4953763;28;47205;-87
2021/06/10 05:38:19;;;;;;;;;6.00;4.25;;;;;-144.77;100.00;61770.03;4957203;28;47195;-89
2021/06/10 05:40:44;;;;;;;;;4.25;3.75;;;;;-144.77;100.00;61770.03;4957523;28;46987;-88
2021/06/10 05:43:10;;;;;;;;;6.00;3.75;;;;;-144.77;100.00;61770.03;4956876;28;47826;-88
2021/06/10 05:45:35;;;;;;;;;4.00;4.00;;;;;-144.77;100.00;61770.03;4957416;28;46982;-88
2021/06/10 05:48:01;;;;;;;;;5.50;4.25;;;;;-144.77;100.00;61770.03;4956637;28;47126;-89
2021/06/10 05:50:27;;;;;;;;;5.75;4.75;;;;;-144.77;100.00;61770.03;4957243;28;47099;-88
2021/06/10 05:52:52;;;;;;;;;4.50;4.00;;;;;-144.77;100.00;61770.03;4957173;28;47858;-88
2021/06/10 05:55:18;;;;;;;;;4.75;4.50;;;;;-144.77;100.00;61770.03;4954995;28;47041;-87
2021/06/10 05:57:43;;;;;;;;;4.75;4.75;;;;;-144.77;100.00;61770.03;4956958;28;47072;-89
2021/06/10 06:00:09;;;;;;;;;6.75;5.00;;;;;-144.77;100.00;61770.03;4958993;28;47115;-90
2021/06/10 06:02:35;;;;;;;;;3.25;3.25;;;;;-144.77;100.00;61770.03;4956675;28;47298;-87
2021/06/10 06:05:01;;;;;;;;;2.50;2.25;;;;;-144.77;100.00;61770.03;4955757;28;47039;-84
2021/06/10 06:07:26;;;;;;;;;4.50;2.75;;;;;-144.77;100.00;61770.03;4955398;28;47062;-87
2021/06/10 06:09:52;;;;;;;;;2.75;2.75;;;;;-144.77;100.00;61770.03;4956868;28;46972;-86
2021/06/10 06:12:18;;;;;;;;;3.25;2.00;;;;;-144.77;100.00;61770.03;4956722;28;47038;-87
2021/06/10 06:14:45;;;;;;;;;2.25;2.25;;;;;-144.77;100.00;61770.03;4956412;28;46980;-86
2021/06/10 06:17:14;;;;;;;;;3.50;3.25;;;;;-144.77;100.00;61770.03;4956811;28;46758;-87
2021/06/10 06:19:40;;;;;;;;;4.00;2.00;;;;;-144.77;100.00;61770.03;4956578;28;47115;-87
2021/06/10 06:22:08;;;;;;;;;3.50;3.50;;;;;-144.77;100.00;61770.03;4988396;28;47216;-86
2021/06/10 06:24:35;;;;;;;;;5.00;3.00;;;;;-144.77;100.00;61770.03;4974326;28;47399;-86
2021/06/10 06:27:04;;;;;;;;;5.00;3.00;;;;;-144.77;100.00;61770.03;4956897;28;46846;-87
2021/06/10 06:29:30;;;;;;;;;3.25;3.25;;;;;-144.77;100.00;61770.03;4956818;28;46945;-86
2021/06/10 06:31:56;;;;;;;;;4.50;3.00;;;;;-144.77;100.00;61770.03;4948705;28;47006;-87
2021/06/10 06:34:22;;;;;;;;;3.00;3.00;;;;;-144.77;100.00;61770.03;4956113;28;46872;-87
2021/06/10 06:36:48;;;;;;;;;4.75;4.75;;;;;-144.77;100.00;61770.03;4956312;28;46986;-87
2021/06/10 06:39:14;;;;;;;;;5.50;3.25;;;;;-144.77;100.00;61770.03;4956913;28;46885;-87
2021/06/10 06:41:40;;;;;;;;;4.00;4.00;;;;;-144.77;100.00;61770.03;4956330;28;47006;-87
2021/06/10 06:44:06;;;;;;;;;4.50;4.00;;;;;-144.77;100.00;61770.03;4951090;28;46823;-85
2021/06/10 06:46:32;;;;;;;;;2.00;2.00;;;;;-144.77;100.00;61770.03;4949989;28;47112;-81
2021/06/10 06:48:58;;;;;;;;;2.75;2.75;;;;;-144.77;100.00;61770.03;4952325;28;47268;-81
2021/06/10 06:51:23;;;;;;;;;3.00;3.00;;;;;-144.77;100.00;61770.03;4953884;28;46971;-81
2021/06/10 06:53:52;;;;;;;;;5.00;3.25;;;;;-144.77;100.00;61770.03;4953199;28;46931;-81
2021/06/10 06:56:18;;;;;;;;;4.50;4.00;;;;;-144.77;100.00;61770.03;4956278;28;47139;-81
2021/06/10 06:58:43;;;;;;;;;4.00;3.00;;;;;-144.77;100.00;61770.03;4956468;28;46937;-86
2021/06/10 07:01:09;;;;;;;;;3.00;3.00;;;;;-144.77;100.00;61770.03;4943163;28;46972;-85
2021/06/10 07:03:35;;;;;;;;;2.50;2.25;;;;;-144.77;100.00;61770.03;4953352;28;46897;-85
2021/06/10 07:06:01;;;;;;;;;4.50;4.00;;;;;-144.77;100.00;61770.03;4952099;28;47164;-86
2021/06/10 07:08:31;;;;;;;;;4.50;4.00;;;;;-144.77;100.00;61770.03;4956400;28;47312;-85
2021/06/10 07:10:57;;;;;;;;;4.25;3.00;;;;;-144.77;100.00;61770.03;4956020;28;48196;-85
2021/06/10 07:13:23;;;;;;;;;4.00;3.50;;;;;-144.77;100.00;61770.03;4956263;28;47103;-86
2021/06/10 07:15:50;;;;;;;;;3.00;3.00;;;;;-144.77;100.00;61770.03;4955974;28;46939;-85
2021/06/10 07:18:16;;;;;;;;;3.25;2.75;;;;;-144.77;100.00;61770.03;4956123;28;46792;-85
2021/06/10 07:20:42;;;;;;;;;4.75;3.00;;;;;-144.77;100.00;61770.03;4955585;28;47861;-86
2021/06/10 07:23:07;;;;;;;;;6.00;3.00;;;;;-144.77;100.00;61770.03;4955711;28;46776;-85
2021/06/10 07:25:33;;;;;;;;;2.00;2.00;;;;;-144.77;100.00;61770.03;4955657;28;46984;-85
2021/06/10 07:27:58;;;;;;;;;4.00;3.00;;;;;-144.77;100.00;61770.03;4959127;28;46889;-85
2021/06/10 07:30:24;;;;;;;;;6.00;2.75;;;;;-144.77;100.00;61770.03;4958762;28;47600;-85
2021/06/10 07:32:50;;;;;;;;;3.00;3.00;;;;;-144.77;100.00;61770.03;4958769;28;46885;-85
2021/06/10 07:35:20;;;;;;;;;3.00;1.75;;;;;-144.77;100.00;61770.03;4958602;28;47167;-86
2021/06/10 07:37:47;;;;;;;;;3.50;2.00;;;;;-144.77;100.00;61770.03;4950741;28;46960;-86
2021/06/10 07:40:13;;;;;;;;;3.50;3.00;;;;;-144.77;100.00;61770.03;4958553;28;46773;-86
2021/06/10 07:42:38;;;;;;;;;4.50;4.50;;;;;-144.77;100.00;61770.03;4958574;28;46996;-86
2021/06/10 07:45:05;;;;;;;;;2.00;2.00;;;;;-144.77;100.00;61770.03;4958737;28;46967;-86
2021/06/10 07:47:30;;;;;;;;;3.75;3.75;;;;;-144.77;100.00;61770.03;4954467;28;47274;-87
2021/06/10 07:49:56;;;;;;;;;5.00;3.00;;;;;-144.77;100.00;61770.03;4957054;28;46998;-87
2021/06/10 07:52:21;;;;;;;;;5.00;4.00;;;;;-144.77;100.00;61770.03;4958635;28;46980;-87
2021/06/10 07:54:47;;;;;;;;;3.25;3.00;;;;;-144.77;100.00;61770.03;4958756;28;47030;-87
2021/06/10 07:57:13;;;;;;;;;3.00;3.00;;;;;-144.77;100.00;61770.03;4958979;28;46982;-88
2021/06/10 07:59:39;;;;;;;;;5.00;4.00;;;;;-144.77;100.00;61770.03;4954160;28;47185;-89
2021/06/10 08:02:04;;;;;;;;;3.00;2.25;;;;;-144.77;100.00;61770.03;4948565;28;46957;-87
2021/06/10 08:04:30;;;;;;;;;4.50;3.00;;;;;-144.77;100.00;61770.03;4958154;28;46850;-88
2021/06/10 08:06:56;;;;;;;;;3.25;3.00;;;;;-144.77;100.00;61770.03;4958912;28;46796;-87
2021/06/10 08:09:21;;;;;;;;;3.50;3.50;;;;;-144.77;100.00;61770.03;4958364;28;48026;-87
2021/06/10 08:11:47;;;;;;;;;3.00;1.75;;;;;-144.77;100.00;61770.03;4958521;28;46949;-87
2021/06/10 08:14:13;;;;;;;;;3.00;3.00;;;;;-144.77;100.00;61770.03;4958338;28;46826;-87
2021/06/10 08:16:38;;;;;;;;;4.50;2.00;;;;;-144.77;100.00;61770.03;4958713;28;47275;-87
2021/06/10 08:19:04;;;;;;;;;5.25;3.75;;;;;-144.77;100.00;61770.03;4958067;28;47118;-87
2021/06/10 08:21:30;;;;;;;;;2.75;2.75;;;;;-144.77;100.00;61770.03;4958433;28;47259;-87
2021/06/10 08:23:57;;;;;;;;;2.75;2.00;;;;;-144.77;100.00;61770.03;4958063;28;46999;-87
2021/06/10 08:26:22;;;;;;;;;3.75;3.00;;;;;-144.77;100.00;61770.03;4958456;28;46961;-88
2021/06/10 08:28:48;;;;;;;;;2.75;2.75;;;;;-144.77;100.00;61770.03;4958167;28;46914;-87
2021/06/10 08:31:16;;;;;;;;;4.00;3.00;;;;;-144.77;100.00;61770.03;4946562;28;46882;-86
2021/06/10 08:33:42;;;;;;;;;5.00;3.75;;;;;-144.77;100.00;61770.03;4955429;28;46917;-87
2021/06/10 08:36:07;;;;;;;;;3.00;3.00;;;;;-144.77;100.00;61770.03;4958487;28;46837;-87
2021/06/10 08:38:34;;;;;;;;;3.00;3.00;;;;;-144.77;100.00;61770.03;4957850;28;47234;-87
2021/06/10 08:41:01;;;;;;;;;2.50;2.50;;;;;-144.77;100.00;61770.03;4968808;28;47294;-87
2021/06/10 08:43:26;;;;;;;;;3.25;2.75;;;;;-144.77;100.00;61770.03;4957930;28;47070;-87
2021/06/10 08:46:05;;;;;;;;;3.00;3.00;;;;;-144.77;100.00;61770.03;4958205;28;47022;-87
2021/06/10 08:48:36;;;;;;;;;3.25;3.25;;;;;-144.77;100.00;61770.03;4957434;28;47993;-87
2021/06/10 08:51:03;;;;;;;;;4.00;4.00;;;;;-144.77;100.00;61770.03;4957910;28;47161;-87
2021/06/10 08:53:29;;;;;;;;;4.25;3.25;;;;;-144.77;100.00;61770.03;4958258;28;46878;-87
2021/06/10 08:55:56;;;;;;;;;3.00;2.75;;;;;-144.77;100.00;61770.03;4954430;28;47190;-87
2021/06/10 08:58:26;;;;;;;;;7.50;5.00;;;;;-144.77;100.00;61770.03;4957957;28;48063;-87
2021/06/10 09:00:53;;;;;;;;;5.50;3.50;;;;;-144.77;100.00;61770.03;4945115;28;47231;-87
2021/06/10 09:03:27;;;;;;;;;3.00;3.00;;;;;-144.77;100.00;61770.03;4944526;28;47062;-86
2021/06/10 09:06:14;;;;;;;;;3.00;3.00;;;;;-144.77;100.00;61770.03;4957981;28;47072;-86
2021/06/10 09:08:41;;;;;;;;;6.00;4.00;;;;;-144.77;100.00;61770.03;4957719;28;46865;-87
2021/06/10 09:11:13;;;;;;;;;4.00;4.00;;;;;-144.77;100.00;61770.03;4957764;28;47066;-87
2021/06/10 09:13:44;;;;;;;;;4.00;3.00;;;;;-144.77;100.00;61770.03;4957744;28;46968;-87
2021/06/10 09:16:18;;;;;;;;;2.00;2.00;;;;;-144.77;100.00;61770.03;4957717;28;46977;-87
2021/06/10 09:18:56;;;;;;;;;5.25;5.00;;;;;-144.77;100.00;61770.03;4957284;28;48034;-87
2021/06/10 09:21:42;;;;;;;;;6.50;4.00;;;;;-144.77;100.00;61770.03;4957610;28;46957;-87
2021/06/10 09:24:35;;;;;;;;;6.00;4.25;;;;;-144.77;100.00;61770.03;4957498;28;46980;-87
2021/06/10 09:27:08;;;;;;;;;5.00;3.00;;;;;-144.77;100.00;61770.03;4953764;28;46982;-86
2021/06/10 09:29:39;;;;;;;;;4.00;3.50;;;;;-144.77;100.00;61770.03;4957466;28;48074;-87
2021/06/10 09:32:22;;;;;;;;;6.25;5.00;;;;;-144.77;100.00;61770.03;4957232;28;47044;-86
2021/06/10 09:35:05;;;;;;;;;11.00;6.00;;;;;-144.77;100.00;61770.03;4957466;28;47012;-87
2021/06/10 09:37:38;;;;;;;;;5.50;5.00;;;;;-144.77;100.00;61770.03;4963421;28;47072;-87
2021/06/10 09:40:18;;;;;;;;;5.75;5.75;;;;;-144.77;100.00;61770.03;4971984;28;48803;-86
2021/06/10 09:42:45;;;;;;;;;4.25;4.25;;;;;-144.77;100.00;61770.03;4955874;28;47420;-87
2021/06/10 09:45:16;;;;;;;;;4.00;4.00;;;;;-144.77;100.00;61770.03;4956131;28;46897;-87
2021/06/10 09:47:49;;;;;;;;;4.25;4.25;;;;;-144.77;100.00;61770.03;5007925;28;47340;-89
2021/06/10 09:50:30;;;;;;;;;7.25;5.50;;;;;-144.77;100.00;61770.03;4943835;28;47011;-90
2021/06/10 09:53:09;;;;;;;;;7.00;5.00;;;;;-144.77;100.00;61770.03;4957375;28;46920;-90
2021/06/10 09:55:40;;;;;;;;;4.75;4.00;;;;;-144.77;100.00;61770.03;4957700;28;47100;-91
2021/06/10 09:58:40;;;;;;;;;5.00;5.00;;;;;-144.77;100.00;61770.03;4972517;28;47173;-93
2021/06/10 10:01:16;;;;;;;;;3.00;3.00;;;;;-144.77;100.00;61770.03;4944480;28;47287;-92
2021/06/10 10:03:45;;;;;;;;;5.00;4.00;;;;;-144.77;100.00;61770.03;4957158;28;47158;-92
2021/06/10 10:06:19;;;;;;;;;7.25;6.00;;;;;-144.77;100.00;61770.03;4956550;28;47129;-93
2021/06/10 10:08:47;;;;;;;;;4.00;4.00;;;;;-144.77;100.00;61770.03;4956921;28;47277;-92
2021/06/10 10:11:14;;;;;;;;;5.50;5.00;;;;;-144.77;100.00;61770.03;4956496;28;49444;-93
2021/06/10 10:13:41;;;;;;;;;5.00;4.00;;;;;-144.77;100.00;61770.03;4957619;28;47146;-91
2021/06/10 10:16:07;;;;;;;;;4.75;4.50;;;;;-144.77;100.00;61770.03;4956275;28;48329;-92
2021/06/10 10:18:33;;;;;;;;;5.75;5.00;;;;;-144.77;100.00;61770.03;4956338;28;47004;-92
2021/06/10 10:21:03;;;;;;;;;7.50;5.75;;;;;-144.77;100.00;61770.03;4956043;28;46917;-91
2021/06/10 10:23:30;;;;;;;;;5.00;5.00;;;;;-144.77;100.00;61770.03;4972322;28;47011;-92
2021/06/10 10:26:02;;;;;;;;;6.75;6.00;;;;;-144.77;100.00;61770.03;4952838;28;47182;-91
2021/06/10 10:28:36;;;;;;;;;5.00;5.00;;;;;-144.77;100.00;61770.03;4966820;28;47032;-89
2021/06/10 10:31:04;;;;;;;;;5.00;3.00;;;;;-144.77;100.00;61770.03;4956724;28;47087;-91
2021/06/10 10:33:31;;;;;;;;;4.75;4.75;;;;;-144.77;100.00;61770.03;4955338;28;47915;-91
2021/06/10 10:36:00;;;;;;;;;5.00;5.00;;;;;-144.77;100.00;61770.03;4953087;28;47064;-91
2021/06/10 10:38:43;;;;;;;;;6.50;6.00;;;;;-144.77;100.00;61770.03;4966711;28;47357;-91
2021/06/10 10:41:21;;;;;;;;;6.25;5.75;;;;;-144.77;100.00;61770.03;4953534;28;47056;-90
2021/06/10 10:43:47;;;;;;;;;5.50;5.00;;;;;-144.77;100.00;61770.03;4955327;28;46839;-90
2021/06/10 10:46:19;;;;;;;;;6.50;6.50;;;;;-144.77;100.00;61770.03;4956695;28;46899;-90
2021/06/10 10:48:49;;;;;;;;;6.25;5.50;;;;;-144.77;100.00;61770.03;4956513;28;47042;-90
2021/06/10 10:51:38;;;;;;;;;7.00;6.00;;;;;-144.77;100.00;61770.03;4956783;28;47276;-89
2021/06/10 10:54:11;;;;;;;;;6.00;6.00;;;;;-144.77;100.00;61770.03;4971570;28;47125;-91
2021/06/10 10:56:43;;;;;;;;;8.50;6.75;;;;;-144.77;100.00;61770.03;4956837;28;47040;-91
2021/06/10 10:59:14;;;;;;;;;7.00;5.00;;;;;-144.77;100.00;61770.03;4956575;28;47082;-89
2021/06/10 11:01:41;;;;;;;;;8.00;6.50;;;;;-144.77;100.00;61770.03;4944596;28;47094;-88
2021/06/10 11:04:08;;;;;;;;;8.50;7.75;;;;;-144.77;100.00;61770.03;4959269;28;46914;-89
2021/06/10 11:06:35;;;;;;;;;11.75;10.00;;;;;-144.77;100.00;61770.03;4959580;28;47039;-88